• Bienvenue sur Pilotes Québec!
  • Bienvenue sur le site de Pilotes Québec, la nouvelle communauté des pilotes et aviateurs du Québec.
  • L'image de cette semaine nous vient de Denis Morissette!  La photo a été prise à Miguasha, en Gaspésie, lors d'un atterrissage par bon vent de travers et fort vent rabattant en finale.
  • Calendrier des activités
  • sujets récents au forum...
  • Les nouvelles en bref...

Connexion


J'ai oublié mon mot de passe
Renvoyer l'e-mail de confirmation
 

Publicité

Vous aimeriez afficher une publicité pour joindre la communauté des pilotes professionnels et privé du Québec?  Cliquez ici pour en savoir plus!

Conditions actuelles

Click for Quebec, Quebec Forecast

METAR - Québec


2015/05/27 19:00
CYQB 271900Z 23011KT 8SM -SHRA SCT040 BKN100 23/21 A2988 RMK SC4AC3 CB EMBD SLP118 DENSITY ALT 1200FT

TAF - Québec


2015/05/27 19:15
TAF TAF
AMD CYQB 271910Z 2719/2818 23012G22KT P6SM SCT040 BKN100
TEMPO 2719/2723 P6SM -SHRA BKN040 PROB40 2719/2722 VRB20G40KT 11/2SM +TSRA BR BKN015 OVC040CB
FM272300 23012KT P6SM BKN040
FM280800 23012KT P6SM -SHRA FEW020 OVC050
RMK NXT FCST BY 280000Z